Brownvale, Canada
Current Conditions -  °F | °C
As of 2:00 AM on Tuesday 21 Oct 2014 (Local Time) from CYPE Reporting Station
Few Clouds Few Clouds  
Wind Chill: 37°   Ceiling: Unl
Heat Index: 43°   Visibility: 15mi
Dew Point: 41°   Wind: 10mph
Humidity: 93%   Direction: 240°WSW
Pressure: 29.52"   Gusts: NA
Location:  56.12°N, 117.9°W
Report Text: CYPE 210800Z 24009KT 15SM FEW090 06/05 A2952 RMK AC2 SLP010
Loading
Personal Weather Stations






























Interactive Weather Map
Tropical Storm Tracking
New forecast layout! Learn more

10-Day Weather Forecast

Advertisements
Track Severe Weather on mobile